Pagrindinis puslapis
METAR-TAF:

METAR-TAF

Oro uostai :

Kaselis, Vokietija

platuma: 51-24N, ilguma: 009-23E, Aukštis: 277 m

Dabartinis oras

Ataskaita buvo paskelbta 6 valandos ir 1 minutes, ne 18:50 UTC
Vėjas 14 kt iš Šiaurės/Šiaurės Vakarų
Temperatūra 8°C
Drėgmė 53%
Slėgis 1020 hPa
Matomumas 10 km arba daugiau
nėra debesų žemiau 1500 m ir nėra kamuolinių lietaus debesų

METAR: EDVK 281850Z 33014KT CAVOK 08/M01 Q1020

Laikas: 01:51 (00:51 UTC)

Prognozė

Ataskaita buvo paskelbta 7 valandos ir 51 minutes, ne 17:00 UTC
Prognozė galioja nuo 28 metu 18 UTC su 29 metu 03 UTC
Vėjas 10 kt iš Šiaurės Vakarų
Matomumas 10 km arba daugiau
nėra debesų žemiau 1500 m ir nėra kamuolinių lietaus debesų

TAF: EDVK 281700Z 2818/2903 32010KT CAVOK

Orai ataskaitas ir orų prognozės (METAR, TAF).

turimą stotys yra geltonos ir raudonos taškus žemėlapyje.

Perkelti pele per norėdami pamatyti stoties vardą.

Tada spustelėkite, norėdami matyti oro stebėjimo ir prognozės.

Norėdami pakeisti žemėlapį: spustelėkite ant žalios mygtukų su juodo kryžiaus žemyn,; žalią mygtuką su brūkšneliu, jei norite nutolinti; arba žalių rodyklių gretimoms žemėlapius.


METAR-TAF: